Time;durP1;ratioP1;P1;durP2;ratioP2;P2;SDS_P1;SDS_P2;PMS_P1;PMS_P2;Temp;Humidity;BMP_temperature;BMP_pressure;BME280_temperature;BME280_humidity;BME280_pressure;Samples;Min_cycle;Max_cycle;Signal;HPM_P1;HPM_P2
2023/05/18 00:00:38;;;;;;;;;;;7.30;1.00;;;;;;5156899;27;19934;-84
2023/05/18 00:03:04;;;;;;;;;;;7.30;1.00;;;;;;5152824;27;20321;-91
2023/05/18 00:05:33;;;;;;;;;;;7.20;1.00;;;;;;5135208;27;20359;-91
2023/05/18 00:07:59;;;;;;;;;;;7.30;1.00;;;;;;5137143;27;19934;-90
2023/05/18 00:10:25;;;;;;;;;;;7.30;1.00;;;;;;5121662;27;19923;-93
2023/05/18 00:12:50;;;;;;;;;;;7.30;1.00;;;;;;5151287;27;19929;-89
2023/05/18 00:15:16;;;;;;;;;;;7.20;1.00;;;;;;5123068;27;19927;-92
2023/05/18 00:17:41;;;;;;;;;;;7.20;1.00;;;;;;5140785;27;19932;-85
2023/05/18 00:20:08;;;;;;;;;;;7.10;1.00;;;;;;5165589;27;19930;-93
2023/05/18 00:22:34;;;;;;;;;;;7.20;1.00;;;;;;5112598;27;19937;-93
2023/05/18 00:24:59;;;;;;;;;;;7.10;1.00;;;;;;5121133;27;20314;-94
2023/05/18 00:27:25;;;;;;;;;;;7.10;1.00;;;;;;5140753;27;19970;-93
2023/05/18 00:29:51;;;;;;;;;;;7.10;1.00;;;;;;5157697;27;19931;-89
2023/05/18 00:32:16;;;;;;;;;;;7.10;1.00;;;;;;5122596;27;19931;-92
2023/05/18 00:34:42;;;;;;;;;;;7.20;1.00;;;;;;5144979;27;19927;-91
2023/05/18 00:37:07;;;;;;;;;;;7.20;1.00;;;;;;5134378;27;19927;-93
2023/05/18 00:39:33;;;;;;;;;;;7.20;1.00;;;;;;5152434;27;19931;-92
2023/05/18 00:41:58;;;;;;;;;;;7.20;1.00;;;;;;5153217;27;19929;-90
2023/05/18 00:44:24;;;;;;;;;;;7.20;1.00;;;;;;5139260;27;19923;-92
2023/05/18 00:46:50;;;;;;;;;;;7.20;1.00;;;;;;5127811;27;19929;-93
2023/05/18 00:49:16;;;;;;;;;;;7.20;1.00;;;;;;5123054;27;20018;-92
2023/05/18 00:51:42;;;;;;;;;;;7.30;1.00;;;;;;5136717;27;19938;-94
2023/05/18 00:54:09;;;;;;;;;;;7.30;1.00;;;;;;5150670;27;19923;-90
2023/05/18 00:56:35;;;;;;;;;;;7.30;1.00;;;;;;5159103;27;19972;-93
2023/05/18 00:59:01;;;;;;;;;;;7.30;1.00;;;;;;5155216;27;19927;-91
2023/05/18 01:01:34;;;;;;;;;;;7.30;1.00;;;;;;5150076;27;19922;-93
2023/05/18 01:04:02;;;;;;;;;;;7.30;1.00;;;;;;5160700;27;19952;-93
2023/05/18 01:06:31;;;;;;;;;;;7.40;1.00;;;;;;5152553;27;19924;-92
2023/05/18 01:09:01;;;;;;;;;;;7.40;1.00;;;;;;5129963;27;19942;-93
2023/05/18 01:11:47;;;;;;;;;;;7.40;1.00;;;;;;5159325;27;19975;-93
2023/05/18 01:14:22;;;;;;;;;;;7.40;1.00;;;;;;5127031;27;20402;-92
2023/05/18 01:16:58;;;;;;;;;;;7.40;1.00;;;;;;5128737;27;19927;-84
2023/05/18 01:19:44;;;;;;;;;;;7.40;1.00;;;;;;5155000;27;19945;-94
2023/05/18 01:22:15;;;;;;;;;;;7.40;1.00;;;;;;5128188;27;19930;-93
2023/05/18 01:24:42;;;;;;;;;;;7.40;1.00;;;;;;5153826;27;20017;-92
2023/05/18 01:27:08;;;;;;;;;;;7.40;1.00;;;;;;5145874;27;19922;-92
2023/05/18 01:29:34;;;;;;;;;;;7.30;1.00;;;;;;5152948;27;19911;-90
2023/05/18 01:32:00;;;;;;;;;;;7.30;1.00;;;;;;5163783;27;19987;-92
2023/05/18 01:34:25;;;;;;;;;;;7.30;1.00;;;;;;5158647;27;19930;-93
2023/05/18 01:36:51;;;;;;;;;;;7.30;1.00;;;;;;5151937;27;21047;-84
2023/05/18 01:39:17;;;;;;;;;;;7.30;1.00;;;;;;5151835;27;19998;-92
2023/05/18 01:41:51;;;;;;;;;;;7.30;1.00;;;;;;5135497;27;19923;-91
2023/05/18 01:44:25;;;;;;;;;;;7.20;1.00;;;;;;5155076;27;19923;-93
2023/05/18 01:46:54;;;;;;;;;;;7.30;1.00;;;;;;5153286;27;19923;-84
2023/05/18 01:49:25;;;;;;;;;;;7.20;1.00;;;;;;5145396;27;19923;-92
2023/05/18 01:51:51;;;;;;;;;;;7.30;1.00;;;;;;5138437;27;19933;-89
2023/05/18 01:54:18;;;;;;;;;;;7.30;1.00;;;;;;5137510;27;20368;-92
2023/05/18 01:56:44;;;;;;;;;;;7.30;1.00;;;;;;5165106;27;19927;-91
2023/05/18 01:59:10;;;;;;;;;;;7.30;1.00;;;;;;5148326;27;19929;-92
2023/05/18 02:01:36;;;;;;;;;;;7.30;1.00;;;;;;5144697;27;20324;-89
2023/05/18 02:04:06;;;;;;;;;;;7.30;1.00;;;;;;5129119;27;20002;-90
2023/05/18 02:06:32;;;;;;;;;;;7.30;1.00;;;;;;5144938;27;19931;-92
2023/05/18 02:08:57;;;;;;;;;;;7.30;1.00;;;;;;5132353;27;20063;-84
2023/05/18 02:11:23;;;;;;;;;;;7.40;1.00;;;;;;5135169;27;19923;-92
2023/05/18 02:13:48;;;;;;;;;;;7.40;1.00;;;;;;5152857;27;19923;-85
2023/05/18 02:16:14;;;;;;;;;;;7.40;1.00;;;;;;5160674;27;19924;-92
2023/05/18 02:18:40;;;;;;;;;;;7.40;1.00;;;;;;5143138;27;19922;-91
2023/05/18 02:21:08;;;;;;;;;;;7.50;1.00;;;;;;5133813;27;19926;-93
2023/05/18 02:23:34;;;;;;;;;;;7.40;1.00;;;;;;5135974;27;19930;-92
2023/05/18 02:26:00;;;;;;;;;;;7.50;1.00;;;;;;5138849;27;19923;-88
2023/05/18 02:28:25;;;;;;;;;;;7.50;1.00;;;;;;5145509;27;19962;-91
2023/05/18 02:30:51;;;;;;;;;;;7.40;1.00;;;;;;5154518;27;19938;-90
2023/05/18 02:33:18;;;;;;;;;;;7.40;1.00;;;;;;5134107;27;19933;-91
2023/05/18 02:35:44;;;;;;;;;;;7.40;1.00;;;;;;5152211;27;19950;-91
2023/05/18 02:38:10;;;;;;;;;;;7.50;1.00;;;;;;5138811;27;19945;-91
2023/05/18 02:40:36;;;;;;;;;;;7.50;1.00;;;;;;5135213;27;20365;-90
2023/05/18 02:43:01;;;;;;;;;;;7.50;1.00;;;;;;5136092;27;19969;-85
2023/05/18 02:45:27;;;;;;;;;;;7.50;1.00;;;;;;5156702;27;19923;-92
2023/05/18 02:47:53;;;;;;;;;;;7.50;1.00;;;;;;5146560;27;19926;-91
2023/05/18 02:50:18;;;;;;;;;;;7.50;1.00;;;;;;5145234;27;19930;-91
2023/05/18 02:52:44;;;;;;;;;;;7.50;1.00;;;;;;5140982;27;19930;-91
2023/05/18 02:55:09;;;;;;;;;;;7.50;1.00;;;;;;5142498;27;19926;-91
2023/05/18 02:57:35;;;;;;;;;;;7.50;1.00;;;;;;5142782;27;20045;-92
2023/05/18 03:00:01;;;;;;;;;;;7.50;1.00;;;;;;5155745;27;20004;-92
2023/05/18 03:02:26;;;;;;;;;;;7.50;1.00;;;;;;5156941;27;19922;-91
2023/05/18 03:04:56;;;;;;;;;;;7.50;1.00;;;;;;5145363;27;19977;-92
2023/05/18 03:07:26;;;;;;;;;;;7.50;1.00;;;;;;5156836;27;19938;-91
2023/05/18 03:09:52;;;;;;;;;;;7.50;1.00;;;;;;5142738;27;19953;-92
2023/05/18 03:12:17;;;;;;;;;;;7.50;1.00;;;;;;5158619;27;20360;-92
2023/05/18 03:14:43;;;;;;;;;;;7.50;1.00;;;;;;5156375;27;20426;-91
2023/05/18 03:17:08;;;;;;;;;;;7.50;1.00;;;;;;5158543;27;19933;-89
2023/05/18 03:19:34;;;;;;;;;;;7.50;1.00;;;;;;5156719;27;19930;-87
2023/05/18 03:22:00;;;;;;;;;;;7.50;1.00;;;;;;5133920;27;19946;-93
2023/05/18 03:24:28;;;;;;;;;;;7.40;1.00;;;;;;5131621;27;19926;-91
2023/05/18 03:26:55;;;;;;;;;;;7.40;1.00;;;;;;5156741;27;20017;-90
2023/05/18 03:29:21;;;;;;;;;;;7.50;1.00;;;;;;5155197;27;20018;-91
2023/05/18 03:31:47;;;;;;;;;;;7.50;1.00;;;;;;5141844;27;19996;-91
2023/05/18 03:34:13;;;;;;;;;;;7.50;1.00;;;;;;5138806;27;21140;-92
2023/05/18 03:36:38;;;;;;;;;;;7.50;1.00;;;;;;5137819;27;20394;-91
2023/05/18 03:39:07;;;;;;;;;;;7.50;1.00;;;;;;5122338;27;20369;-92
2023/05/18 03:41:33;;;;;;;;;;;7.40;1.00;;;;;;5140565;27;20415;-92
2023/05/18 03:43:58;;;;;;;;;;;7.40;1.00;;;;;;5137756;27;20014;-91
2023/05/18 03:46:24;;;;;;;;;;;7.50;1.00;;;;;;5149285;27;19923;-92
2023/05/18 03:48:53;;;;;;;;;;;7.50;1.00;;;;;;5139393;27;19973;-93
2023/05/18 03:51:18;;;;;;;;;;;7.50;1.00;;;;;;5158357;27;19931;-90
2023/05/18 03:53:44;;;;;;;;;;;7.50;1.00;;;;;;5123707;27;20015;-92
2023/05/18 03:56:12;;;;;;;;;;;7.50;1.00;;;;;;5135118;27;19951;-91
2023/05/18 03:58:37;;;;;;;;;;;7.50;1.00;;;;;;5136669;27;19930;-92
2023/05/18 04:01:03;;;;;;;;;;;7.50;1.00;;;;;;5148875;27;19927;-88
2023/05/18 04:03:29;;;;;;;;;;;7.60;1.00;;;;;;5156949;27;20393;-91
2023/05/18 04:05:55;;;;;;;;;;;7.70;1.00;;;;;;5138128;27;19922;-92
2023/05/18 04:08:24;;;;;;;;;;;7.60;1.00;;;;;;5138791;27;20379;-92
2023/05/18 04:10:50;;;;;;;;;;;7.60;1.00;;;;;;5109029;27;20014;-92
2023/05/18 04:13:16;;;;;;;;;;;7.70;1.00;;;;;;5154619;27;20358;-86
2023/05/18 04:15:42;;;;;;;;;;;7.70;1.00;;;;;;5130840;27;20043;-91
2023/05/18 04:18:09;;;;;;;;;;;7.70;1.00;;;;;;5143857;27;19971;-92
2023/05/18 04:20:36;;;;;;;;;;;7.70;1.00;;;;;;5140424;27;20375;-92
2023/05/18 04:23:02;;;;;;;;;;;7.80;1.00;;;;;;5138716;27;20370;-92
2023/05/18 04:25:28;;;;;;;;;;;7.90;1.00;;;;;;5136527;27;19930;-92
2023/05/18 04:27:53;;;;;;;;;;;7.90;1.00;;;;;;5122858;27;19927;-90
2023/05/18 04:30:21;;;;;;;;;;;7.90;1.00;;;;;;5145505;27;19923;-90
2023/05/18 04:32:47;;;;;;;;;;;7.90;1.00;;;;;;5139058;27;19922;-90
2023/05/18 04:35:13;;;;;;;;;;;8.00;1.00;;;;;;5140198;27;19929;-91
2023/05/18 04:37:41;;;;;;;;;;;8.00;1.00;;;;;;5153243;27;19974;-86
2023/05/18 04:40:11;;;;;;;;;;;8.00;1.00;;;;;;5148293;27;19923;-91
2023/05/18 04:42:37;;;;;;;;;;;8.10;1.00;;;;;;5156471;27;19948;-91
2023/05/18 04:45:04;;;;;;;;;;;8.10;1.00;;;;;;5113014;27;19923;-91
2023/05/18 04:47:30;;;;;;;;;;;8.20;1.00;;;;;;5148673;27;19923;-88
2023/05/18 04:49:55;;;;;;;;;;;8.20;1.00;;;;;;5118792;27;19971;-89
2023/05/18 04:52:21;;;;;;;;;;;8.30;1.00;;;;;;5133762;27;20389;-85
2023/05/18 04:54:47;;;;;;;;;;;8.40;1.00;;;;;;5125069;27;19923;-91
2023/05/18 04:57:13;;;;;;;;;;;8.50;1.00;;;;;;5138442;27;19990;-91
2023/05/18 04:59:40;;;;;;;;;;;8.60;1.00;;;;;;5151316;27;19926;-88
2023/05/18 05:02:05;;;;;;;;;;;8.60;1.00;;;;;;5121061;27;19923;-91
2023/05/18 05:04:31;;;;;;;;;;;8.70;1.00;;;;;;5153706;27;19937;-91
2023/05/18 05:06:57;;;;;;;;;;;8.80;1.00;;;;;;5134518;27;19930;-93
2023/05/18 05:09:22;;;;;;;;;;;8.90;1.00;;;;;;5155819;27;19922;-84
2023/05/18 05:11:48;;;;;;;;;;;9.00;1.00;;;;;;5155455;27;19926;-92
2023/05/18 05:14:13;;;;;;;;;;;9.10;1.00;;;;;;5168167;27;19923;-90
2023/05/18 05:16:39;;;;;;;;;;;9.10;1.00;;;;;;5139346;27;19923;-88
2023/05/18 05:19:04;;;;;;;;;;;9.20;1.00;;;;;;5153775;27;19930;-90
2023/05/18 05:21:30;;;;;;;;;;;9.20;1.00;;;;;;5146707;27;19931;-91
2023/05/18 05:23:56;;;;;;;;;;;9.30;1.00;;;;;;5130711;27;19927;-92
2023/05/18 05:26:22;;;;;;;;;;;9.30;1.00;;;;;;5151803;27;19979;-91
2023/05/18 05:28:47;;;;;;;;;;;9.30;1.00;;;;;;5132008;27;19923;-91
2023/05/18 05:31:13;;;;;;;;;;;9.40;1.00;;;;;;5127205;27;19927;-90
2023/05/18 05:33:39;;;;;;;;;;;9.40;1.00;;;;;;5123703;27;19933;-89
2023/05/18 05:36:04;;;;;;;;;;;9.40;1.00;;;;;;5137889;27;19923;-92
2023/05/18 05:38:30;;;;;;;;;;;9.40;1.00;;;;;;5148615;27;19930;-90
2023/05/18 05:40:56;;;;;;;;;;;9.50;1.00;;;;;;5146580;27;19933;-90
2023/05/18 05:43:22;;;;;;;;;;;9.60;1.00;;;;;;5152254;27;19931;-94
2023/05/18 05:45:47;;;;;;;;;;;9.60;1.00;;;;;;5151194;27;20488;-93
2023/05/18 05:48:13;;;;;;;;;;;9.70;1.00;;;;;;5140647;27;20480;-92
2023/05/18 05:50:38;;;;;;;;;;;9.80;1.00;;;;;;5144461;27;19923;-89
2023/05/18 05:53:04;;;;;;;;;;;9.90;1.00;;;;;;5134943;27;19923;-93
2023/05/18 05:55:29;;;;;;;;;;;10.00;1.00;;;;;;5113652;27;20020;-85
2023/05/18 05:57:55;;;;;;;;;;;10.10;1.00;;;;;;5143015;27;19927;-87
2023/05/18 06:00:22;;;;;;;;;;;10.20;1.00;;;;;;5124660;27;20323;-87
2023/05/18 06:02:48;;;;;;;;;;;10.30;1.00;;;;;;5142244;27;19948;-89
2023/05/18 06:05:13;;;;;;;;;;;10.40;1.00;;;;;;5120859;27;19927;-87
2023/05/18 06:07:39;;;;;;;;;;;10.50;1.00;;;;;;5142911;27;19938;-86
2023/05/18 06:10:05;;;;;;;;;;;10.60;1.00;;;;;;5148647;27;19923;-88
2023/05/18 06:12:31;;;;;;;;;;;10.70;1.00;;;;;;5140199;27;19970;-84
2023/05/18 06:14:56;;;;;;;;;;;10.90;1.00;;;;;;5151767;27;19930;-86
2023/05/18 06:17:23;;;;;;;;;;;11.00;1.00;;;;;;5154091;27;19965;-87
2023/05/18 06:19:48;;;;;;;;;;;11.10;1.00;;;;;;5137788;27;19927;-88
2023/05/18 06:22:14;;;;;;;;;;;11.20;1.00;;;;;;5138215;27;19929;-88
2023/05/18 06:24:40;;;;;;;;;;;11.30;1.00;;;;;;5130202;27;19922;-88
2023/05/18 06:27:05;;;;;;;;;;;11.30;1.00;;;;;;5121075;27;19923;-85
2023/05/18 06:29:31;;;;;;;;;;;11.40;1.00;;;;;;5138300;27;19927;-85
2023/05/18 06:31:56;;;;;;;;;;;11.50;1.00;;;;;;5132053;27;20385;-84
2023/05/18 06:34:22;;;;;;;;;;;11.70;1.00;;;;;;5145624;27;19975;-84
2023/05/18 06:36:47;;;;;;;;;;;11.70;1.00;;;;;;5147670;27;19927;-83
2023/05/18 06:39:13;;;;;;;;;;;11.80;1.00;;;;;;5143755;27;19926;-82
2023/05/18 06:41:38;;;;;;;;;;;12.00;1.00;;;;;;5169933;27;19922;-83
2023/05/18 06:44:04;;;;;;;;;;;12.00;1.00;;;;;;5142479;27;19923;-77
2023/05/18 06:46:30;;;;;;;;;;;12.00;1.00;;;;;;5152141;27;20019;-78
2023/05/18 06:48:55;;;;;;;;;;;12.10;1.00;;;;;;5153931;27;19923;-81
2023/05/18 06:51:21;;;;;;;;;;;12.10;1.00;;;;;;5146940;27;19941;-81
2023/05/18 06:53:47;;;;;;;;;;;12.10;1.00;;;;;;5147433;27;19984;-82
2023/05/18 06:56:12;;;;;;;;;;;12.10;1.00;;;;;;5175195;27;19969;-85
2023/05/18 06:58:38;;;;;;;;;;;12.00;1.00;;;;;;5148488;27;19927;-85
2023/05/18 07:01:04;;;;;;;;;;;11.90;1.00;;;;;;5149310;27;19951;-85
2023/05/18 07:03:31;;;;;;;;;;;11.80;1.00;;;;;;5138506;27;19931;-86
2023/05/18 07:05:57;;;;;;;;;;;11.70;1.00;;;;;;5152876;27;19926;-87
2023/05/18 07:08:23;;;;;;;;;;;11.70;1.00;;;;;;5136808;27;19930;-85
2023/05/18 07:10:49;;;;;;;;;;;11.80;1.00;;;;;;5145964;27;20385;-86
2023/05/18 07:13:15;;;;;;;;;;;11.80;1.00;;;;;;5146257;27;19930;-86
2023/05/18 07:15:40;;;;;;;;;;;12.00;1.00;;;;;;5136331;27;19934;-85
2023/05/18 07:18:06;;;;;;;;;;;12.00;1.00;;;;;;5153666;27;20426;-86
2023/05/18 07:20:31;;;;;;;;;;;12.20;1.00;;;;;;5149830;27;19927;-81
2023/05/18 07:22:57;;;;;;;;;;;12.50;1.00;;;;;;5159462;27;19929;-80
2023/05/18 07:25:23;;;;;;;;;;;12.70;1.00;;;;;;5169965;27;19923;-81
2023/05/18 07:27:50;;;;;;;;;;;12.90;1.00;;;;;;5171191;27;20041;-82
2023/05/18 07:30:16;;;;;;;;;;;13.00;1.00;;;;;;5138336;27;19927;-82
2023/05/18 07:32:44;;;;;;;;;;;13.30;1.00;;;;;;5143539;27;19931;-83
2023/05/18 07:35:09;;;;;;;;;;;13.50;1.00;;;;;;5130025;27;19922;-83
2023/05/18 07:37:35;;;;;;;;;;;13.70;1.00;;;;;;5169722;27;19923;-83
2023/05/18 07:40:01;;;;;;;;;;;13.80;1.00;;;;;;5138837;27;19980;-84
2023/05/18 07:42:27;;;;;;;;;;;14.00;1.00;;;;;;5153353;27;19923;-84
2023/05/18 07:44:52;;;;;;;;;;;14.10;1.00;;;;;;5128503;27;19987;-83
2023/05/18 07:47:20;;;;;;;;;;;14.20;1.00;;;;;;5149691;27;20430;-84
2023/05/18 07:49:46;;;;;;;;;;;14.20;1.00;;;;;;5126000;27;20005;-83
2023/05/18 07:52:11;;;;;;;;;;;14.30;1.00;;;;;;5146019;27;20392;-83
2023/05/18 07:54:37;;;;;;;;;;;14.40;1.00;;;;;;5135317;27;19976;-84
2023/05/18 07:57:03;;;;;;;;;;;14.70;1.00;;;;;;5156416;27;20442;-83
2023/05/18 07:59:28;;;;;;;;;;;15.00;1.00;;;;;;5139210;27;19927;-83
2023/05/18 08:01:54;;;;;;;;;;;15.40;1.00;;;;;;5143623;27;19923;-82
2023/05/18 08:04:20;;;;;;;;;;;15.50;1.00;;;;;;5139081;27;19923;-83
2023/05/18 08:06:45;;;;;;;;;;;15.50;1.00;;;;;;5156033;27;19927;-83
2023/05/18 08:09:11;;;;;;;;;;;15.60;1.00;;;;;;5155213;27;20609;-83
2023/05/18 08:11:36;;;;;;;;;;;15.50;1.00;;;;;;5131332;27;20021;-83
2023/05/18 08:14:02;;;;;;;;;;;15.50;1.00;;;;;;5155556;27;19931;-83
2023/05/18 08:16:28;;;;;;;;;;;15.50;1.00;;;;;;5131052;27;19927;-83
2023/05/18 08:18:53;;;;;;;;;;;15.30;1.00;;;;;;5147357;27;19927;-83
2023/05/18 08:21:19;;;;;;;;;;;15.20;1.00;;;;;;5153502;27;19923;-83
2023/05/18 08:23:45;;;;;;;;;;;15.30;1.00;;;;;;5135453;27;20398;-83
2023/05/18 08:26:11;;;;;;;;;;;15.60;1.00;;;;;;5151416;27;20502;-83
2023/05/18 08:28:37;;;;;;;;;;;16.30;1.00;;;;;;5139184;27;19923;-83
2023/05/18 08:31:03;;;;;;;;;;;16.90;1.00;;;;;;5155276;27;19977;-82
2023/05/18 08:33:28;;;;;;;;;;;17.10;1.00;;;;;;5155510;27;20286;-82
2023/05/18 08:35:54;;;;;;;;;;;16.90;1.00;;;;;;5153405;27;20351;-83
2023/05/18 08:38:19;;;;;;;;;;;17.00;1.00;;;;;;5138373;27;19991;-83
2023/05/18 08:41:00;;;;;;;;;;;17.80;1.00;;;;;;5137722;27;20371;-83
2023/05/18 08:43:32;;;;;;;;;;;18.60;1.00;;;;;;5155468;27;19946;-83
2023/05/18 08:46:06;;;;;;;;;;;19.20;1.00;;;;;;5154363;27;19929;-82
2023/05/18 08:48:34;;;;;;;;;;;19.00;1.00;;;;;;5154501;27;20013;-84
2023/05/18 08:51:05;;;;;;;;;;;18.40;1.00;;;;;;5125241;27;20212;-84
2023/05/18 08:53:31;;;;;;;;;;;18.40;1.00;;;;;;5141227;27;19972;-84
2023/05/18 08:55:57;;;;;;;;;;;18.80;1.00;;;;;;5146226;27;19923;-83
2023/05/18 08:58:26;;;;;;;;;;;19.20;1.00;;;;;;5132472;27;20371;-83
2023/05/18 09:00:53;;;;;;;;;;;19.50;1.00;;;;;;5138409;27;20313;-83
2023/05/18 09:03:19;;;;;;;;;;;19.30;1.00;;;;;;5138586;27;19927;-83
2023/05/18 09:05:45;;;;;;;;;;;18.90;1.00;;;;;;5134902;27;19952;-83
2023/05/18 09:08:11;;;;;;;;;;;18.90;1.00;;;;;;5149726;27;20339;-83
2023/05/18 09:10:37;;;;;;;;;;;19.00;1.00;;;;;;5155174;27;19927;-83
2023/05/18 09:13:04;;;;;;;;;;;18.90;1.00;;;;;;5137138;27;19930;-83
2023/05/18 09:15:29;;;;;;;;;;;18.50;1.00;;;;;;5138057;27;19929;-83
2023/05/18 09:17:55;;;;;;;;;;;18.00;1.00;;;;;;5173045;27;20469;-83
2023/05/18 09:20:20;;;;;;;;;;;17.80;1.00;;;;;;5154700;27;20015;-83
2023/05/18 09:22:50;;;;;;;;;;;17.60;1.00;;;;;;5141176;27;19931;-83
2023/05/18 09:25:16;;;;;;;;;;;17.30;1.00;;;;;;5122903;27;19930;-83
2023/05/18 09:27:42;;;;;;;;;;;17.10;1.00;;;;;;5128078;27;19926;-84
2023/05/18 09:30:11;;;;;;;;;;;17.00;1.00;;;;;;5149452;27;19975;-84
2023/05/18 09:32:37;;;;;;;;;;;17.10;1.00;;;;;;5131158;27;19931;-83
2023/05/18 09:35:03;;;;;;;;;;;17.70;1.00;;;;;;5144397;27;20431;-83
2023/05/18 09:37:30;;;;;;;;;;;18.50;1.00;;;;;;5149336;27;20052;-83
2023/05/18 09:39:58;;;;;;;;;;;18.90;1.00;;;;;;5154199;27;19946;-83
2023/05/18 09:42:42;;;;;;;;;;;19.10;1.00;;;;;;5150509;27;19927;-83
2023/05/18 09:45:18;;;;;;;;;;;19.20;1.00;;;;;;5145881;27;20355;-84
2023/05/18 09:47:44;;;;;;;;;;;19.10;1.00;;;;;;5172995;27;20047;-83
2023/05/18 09:50:10;;;;;;;;;;;19.80;1.00;;;;;;5139904;27;19927;-82
2023/05/18 09:52:42;;;;;;;;;;;20.40;1.00;;;;;;5166187;27;19927;-83
2023/05/18 09:55:09;;;;;;;;;;;21.00;1.00;;;;;;5132473;27;19923;-83
2023/05/18 09:57:41;;;;;;;;;;;21.40;1.00;;;;;;5154382;27;20013;-83
2023/05/18 10:00:09;;;;;;;;;;;21.80;1.00;;;;;;5153358;27;19923;-83
2023/05/18 10:02:46;;;;;;;;;;;22.30;1.00;;;;;;5137602;27;19922;-83
2023/05/18 10:05:19;;;;;;;;;;;22.90;1.00;;;;;;5153670;27;19926;-84
2023/05/18 10:07:45;;;;;;;;;;;23.70;1.00;;;;;;5154886;27;20418;-83
2023/05/18 10:10:11;;;;;;;;;;;24.00;1.00;;;;;;5152425;27;20275;-84
2023/05/18 10:12:40;;;;;;;;;;;24.00;1.00;;;;;;5154461;27;19929;-83
2023/05/18 10:15:09;;;;;;;;;;;23.90;1.00;;;;;;5153743;27;20006;-83
2023/05/18 10:17:36;;;;;;;;;;;23.90;1.00;;;;;;5153758;27;20374;-83
2023/05/18 10:20:04;;;;;;;;;;;23.80;1.00;;;;;;5152645;27;19974;-84
2023/05/18 10:22:33;;;;;;;;;;;23.80;1.00;;;;;;5125173;27;19923;-83
2023/05/18 10:25:00;;;;;;;;;;;23.50;1.00;;;;;;5154239;27;19926;-83
2023/05/18 10:27:27;;;;;;;;;;;23.00;1.00;;;;;;5118772;27;20548;-82
2023/05/18 10:29:53;;;;;;;;;;;22.40;1.00;;;;;;5140226;27;19975;-83
2023/05/18 10:32:20;;;;;;;;;;;21.60;1.00;;;;;;5171543;27;19927;-82
2023/05/18 10:34:46;;;;;;;;;;;20.80;1.00;;;;;;5136974;27;19923;-82
2023/05/18 10:37:12;;;;;;;;;;;20.20;1.00;;;;;;5153712;27;19971;-82
2023/05/18 10:39:39;;;;;;;;;;;19.60;1.00;;;;;;5159810;27;19990;-84
2023/05/18 10:42:07;;;;;;;;;;;19.20;1.00;;;;;;5153575;27;19923;-82
2023/05/18 10:44:34;;;;;;;;;;;19.10;1.00;;;;;;5141928;27;19930;-82
2023/05/18 10:47:00;;;;;;;;;;;19.30;1.00;;;;;;5140468;27;19948;-83
2023/05/18 10:49:26;;;;;;;;;;;19.10;1.00;;;;;;5153564;27;19942;-83
2023/05/18 10:51:52;;;;;;;;;;;18.90;1.00;;;;;;5121586;27;19931;-83
2023/05/18 10:54:18;;;;;;;;;;;18.80;1.00;;;;;;5140988;27;19927;-82
2023/05/18 10:56:46;;;;;;;;;;;18.60;1.00;;;;;;5170526;27;19930;-82
2023/05/18 10:59:12;;;;;;;;;;;18.80;1.00;;;;;;5153500;27;19933;-83
2023/05/18 11:01:38;;;;;;;;;;;19.80;1.00;;;;;;5153460;27;19923;-83
2023/05/18 11:04:04;;;;;;;;;;;20.40;1.00;;;;;;5153691;27;20383;-83
2023/05/18 11:06:32;;;;;;;;;;;20.60;1.00;;;;;;5173959;27;19926;-83
2023/05/18 11:08:58;;;;;;;;;;;21.00;1.00;;;;;;5140867;27;19927;-83
2023/05/18 11:11:28;;;;;;;;;;;21.30;1.00;;;;;;5156747;27;19971;-83
2023/05/18 11:13:59;;;;;;;;;;;21.60;1.00;;;;;;5148152;27;19927;-83
2023/05/18 11:16:31;;;;;;;;;;;22.10;1.00;;;;;;5149448;27;20402;-83
2023/05/18 11:19:03;;;;;;;;;;;22.40;1.00;;;;;;5148599;27;20043;-83
2023/05/18 11:21:31;;;;;;;;;;;23.40;1.00;;;;;;5152921;27;19934;-81
2023/05/18 11:24:06;;;;;;;;;;;24.30;1.00;;;;;;5120625;27;20010;-83
2023/05/18 11:26:36;;;;;;;;;;;24.90;1.00;;;;;;5136088;27;20583;-82
2023/05/18 11:29:14;;;;;;;;;;;25.70;1.00;;;;;;5139496;27;20584;-82
2023/05/18 11:31:47;;;;;;;;;;;26.30;1.00;;;;;;5145187;27;19922;-82
2023/05/18 11:34:31;;;;;;;;;;;26.90;1.00;;;;;;5156811;27;19923;-82
2023/05/18 11:36:57;;;;;;;;;;;27.40;1.00;;;;;;5157101;27;19927;-82
2023/05/18 11:39:23;;;;;;;;;;;27.30;1.00;;;;;;5156244;27;20276;-81
2023/05/18 11:41:59;;;;;;;;;;;27.40;1.00;;;;;;5157208;27;19949;-82
2023/05/18 11:44:26;;;;;;;;;;;27.00;1.00;;;;;;5156622;27;19927;-82
2023/05/18 11:47:00;;;;;;;;;;;27.00;1.00;;;;;;5156027;27;20022;-82
2023/05/18 11:49:27;;;;;;;;;;;27.20;1.00;;;;;;5156666;27;19923;-82
2023/05/18 11:51:55;;;;;;;;;;;27.50;1.00;;;;;;5156834;27;19967;-82
2023/05/18 11:54:24;;;;;;;;;;;27.80;1.00;;;;;;5155917;27;19949;-82
2023/05/18 11:56:54;;;;;;;;;;;27.90;1.00;;;;;;5155521;27;19930;-82
2023/05/18 11:59:37;;;;;;;;;;;27.70;1.00;;;;;;5156687;27;19923;-82
2023/05/18 12:02:02;;;;;;;;;;;27.70;1.00;;;;;;5156283;27;20063;-82
2023/05/18 12:04:28;;;;;;;;;;;28.00;1.00;;;;;;5156276;27;20014;-83
2023/05/18 12:06:55;;;;;;;;;;;28.10;1.00;;;;;;5150443;27;20328;-82
2023/05/18 12:09:21;;;;;;;;;;;27.90;1.00;;;;;;5148635;27;19923;-82
2023/05/18 12:11:46;;;;;;;;;;;27.80;1.00;;;;;;5156248;27;19927;-83
2023/05/18 12:14:12;;;;;;;;;;;27.50;1.00;;;;;;5156688;27;19978;-83
2023/05/18 12:16:38;;;;;;;;;;;27.20;1.00;;;;;;5131972;27;19924;-82
2023/05/18 12:19:04;;;;;;;;;;;27.00;1.00;;;;;;5131182;27;19927;-84
2023/05/18 12:21:29;;;;;;;;;;;27.10;1.00;;;;;;5124267;27;19929;-84
2023/05/18 12:23:59;;;;;;;;;;;27.40;1.00;;;;;;5122330;27;19962;-84
2023/05/18 12:26:27;;;;;;;;;;;27.70;1.00;;;;;;5138009;27;19948;-83
2023/05/18 12:28:56;;;;;;;;;;;27.90;1.00;;;;;;5155488;27;19926;-84
2023/05/18 12:31:22;;;;;;;;;;;28.20;1.00;;;;;;5155338;27;19930;-84
2023/05/18 12:33:49;;;;;;;;;;;28.20;1.00;;;;;;5155201;27;19929;-84
2023/05/18 12:36:15;;;;;;;;;;;27.70;1.00;;;;;;5155036;27;19983;-84
2023/05/18 12:38:41;;;;;;;;;;;27.50;1.00;;;;;;5155201;27;20391;-84
2023/05/18 12:41:07;;;;;;;;;;;27.40;1.00;;;;;;5138154;27;19973;-84
2023/05/18 12:43:42;;;;;;;;;;;27.30;1.00;;;;;;5155416;27;19922;-86
2023/05/18 12:46:08;;;;;;;;;;;27.50;1.00;;;;;;5126263;27;19974;-83
2023/05/18 12:48:37;;;;;;;;;;;27.30;1.00;;;;;;5154967;27;19926;-82
2023/05/18 12:51:02;;;;;;;;;;;27.60;1.00;;;;;;5117526;27;19927;-83
2023/05/18 12:53:41;;;;;;;;;;;28.20;1.00;;;;;;5149380;27;19923;-82
2023/05/18 12:56:10;;;;;;;;;;;28.20;1.00;;;;;;5155232;27;20406;-84
2023/05/18 12:58:36;;;;;;;;;;;28.00;1.00;;;;;;5153378;27;19929;-82
2023/05/18 13:01:08;;;;;;;;;;;28.20;1.00;;;;;;5145515;27;19965;-84
2023/05/18 13:03:34;;;;;;;;;;;28.70;1.00;;;;;;5139160;27;19927;-84
2023/05/18 13:06:01;;;;;;;;;;;29.20;1.00;;;;;;5155206;27;19928;-84
2023/05/18 13:08:27;;;;;;;;;;;29.40;1.00;;;;;;5153713;27;19923;-83
2023/05/18 13:10:52;;;;;;;;;;;29.20;1.00;;;;;;5155237;27;20014;-83
2023/05/18 13:13:18;;;;;;;;;;;29.10;1.00;;;;;;5137363;27;19988;-85
2023/05/18 13:15:44;;;;;;;;;;;29.30;1.00;;;;;;5155100;27;19934;-84
2023/05/18 13:18:10;;;;;;;;;;;29.20;1.00;;;;;;5150344;27;19924;-84
2023/05/18 13:20:38;;;;;;;;;;;28.50;1.00;;;;;;5145283;27;19922;-83
2023/05/18 13:23:06;;;;;;;;;;;27.80;1.00;;;;;;5142213;27;19927;-83
2023/05/18 13:25:32;;;;;;;;;;;27.20;1.00;;;;;;5137016;27;19927;-82
2023/05/18 13:27:57;;;;;;;;;;;26.50;1.00;;;;;;5132912;27;19983;-83
2023/05/18 13:30:23;;;;;;;;;;;26.10;1.00;;;;;;5107101;27;19975;-83
2023/05/18 13:32:50;;;;;;;;;;;26.20;1.00;;;;;;5151943;27;19926;-82
2023/05/18 13:35:17;;;;;;;;;;;26.10;1.00;;;;;;5173320;27;19923;-83
2023/05/18 13:37:43;;;;;;;;;;;25.80;1.00;;;;;;5136464;27;19975;-83
2023/05/18 13:40:10;;;;;;;;;;;26.00;1.00;;;;;;5143064;27;19931;-83
2023/05/18 13:42:35;;;;;;;;;;;26.50;1.00;;;;;;5138420;27;19923;-83
2023/05/18 13:45:01;;;;;;;;;;;27.00;1.00;;;;;;5154799;27;20405;-83
2023/05/18 13:47:26;;;;;;;;;;;27.70;1.00;;;;;;5132405;27;19972;-83
2023/05/18 13:49:52;;;;;;;;;;;28.30;1.00;;;;;;5146124;27;20067;-83
2023/05/18 13:52:17;;;;;;;;;;;28.20;1.00;;;;;;5154312;27;19927;-84
2023/05/18 13:54:43;;;;;;;;;;;27.30;1.00;;;;;;5141778;27;19931;-84
2023/05/18 13:57:09;;;;;;;;;;;26.30;1.00;;;;;;5152500;27;19926;-84
2023/05/18 13:59:34;;;;;;;;;;;25.90;1.00;;;;;;5154426;27;20289;-84
2023/05/18 14:02:00;;;;;;;;;;;25.80;1.00;;;;;;5131663;27;20006;-84
2023/05/18 14:04:26;;;;;;;;;;;25.70;1.00;;;;;;5146070;27;20450;-83
2023/05/18 14:06:53;;;;;;;;;;;25.70;1.00;;;;;;5119305;27;20161;-83
2023/05/18 14:09:18;;;;;;;;;;;25.50;1.00;;;;;;5137417;27;19923;-84
2023/05/18 14:11:44;;;;;;;;;;;25.20;1.00;;;;;;5148182;27;20291;-84
2023/05/18 14:14:10;;;;;;;;;;;25.00;1.00;;;;;;5146072;27;19954;-85
2023/05/18 14:16:35;;;;;;;;;;;24.90;1.00;;;;;;5136223;27;20022;-82
2023/05/18 14:19:01;;;;;;;;;;;24.60;1.00;;;;;;5134925;27;19934;-83
2023/05/18 14:21:27;;;;;;;;;;;24.00;1.00;;;;;;5132560;27;20492;-84
2023/05/18 14:23:52;;;;;;;;;;;23.00;1.00;;;;;;5144713;27;20328;-84
2023/05/18 14:26:18;;;;;;;;;;;22.10;1.00;;;;;;5152716;27;19966;-84
2023/05/18 14:28:43;;;;;;;;;;;21.30;1.00;;;;;;5133570;27;19979;-83
2023/05/18 14:31:09;;;;;;;;;;;20.70;1.00;;;;;;5151613;27;19926;-84
2023/05/18 14:33:35;;;;;;;;;;;20.30;1.00;;;;;;5172703;27;19923;-84